KTPL/TPL METAR and TAF weather

Enter ICAO airport designator
Station Type Date Time Source
KTPL METAR 2019/02/17 07:36 UTC NOAA

KTPL 170736Z AUTO 30007KT 2 1/2SM -RA BR OVC004 08/08 A2973 RMK AO2 RAB0657E15B34 CIG 002V006 PRESRR P0000


Station Type Date Time Source
KTPL Decoded METAR 2019/02/17 07:36 UTC NOAA

Temple, Draughon-Miller Central Texas Regional Airport, TX, United States (KTPL) 31-09N 097-24W
Feb 17, 2019 - 02:36 AM EST / 2019.02.17 0736 UTC
Wind: from the WNW (300 degrees) at 8 MPH (7 KT):0
Visibility: 2 1/2 mile(s):0
Sky conditions: overcast
Weather: light rain; mist
Precipitation last hour: A trace
Temperature: 46 F (8 C)
Dew Point: 46 F (8 C)
Relative Humidity: 100%
Pressure (altimeter): 29.73 in. Hg (1006 hPa)
Pressure tendency: rising rapidly
ob: KTPL 170736Z AUTO 30007KT 2 1/2SM -RA BR OVC004 08/08 A2973 RMK AO2 RAB0657E15B34 CIG 002V006 PRESRR P0000
cycle: 7

Station Type Date Time Source
KTPL TAF UTC NOAA

Error!


Example: see airport list